Wynona, Oklahoma
Current Conditions -  °F | °C
As of 10:53 AM on Friday 24 Oct 2014 (Local Time) from KBVO Reporting Station
Clear Clear  
Wind Chill: 70°   Ceiling: Unl
Heat Index: 70°   Visibility: 10mi
Dew Point: 58°   Wind: 13mph
Humidity: 65%   Direction: 210°SSW
Pressure: 30.11"   Gusts: 16mph
Location:  36.55°N, 96.33°W
Report Text: KBVO 241553Z AUTO 21011G14KT 10SM CLR 21/14 A3011 RMK AO2 SLP190 T02110144
Loading
Personal Weather Stations






























Interactive Weather Map
Tropical Storm Tracking
New forecast layout! Learn more

10-Day Weather Forecast

Advertisements
Track Severe Weather on mobile